sensor_id;sensor_type;location;lat;lon;timestamp;P1;durP1;ratioP1;P2;durP2;ratioP2
22289;SDS011;11313;50.116;8.424;2024-03-17T00:02:20;2.55;;;1.60;;
22289;SDS011;11313;50.116;8.424;2024-03-17T00:04:46;2.22;;;1.30;;
22289;SDS011;11313;50.116;8.424;2024-03-17T00:07:12;3.13;;;1.65;;
22289;SDS011;11313;50.116;8.424;2024-03-17T00:09:38;2.28;;;1.40;;
22289;SDS011;11313;50.116;8.424;2024-03-17T00:12:04;2.45;;;1.58;;
22289;SDS011;11313;50.116;8.424;2024-03-17T00:14:30;4.90;;;1.70;;
22289;SDS011;11313;50.116;8.424;2024-03-17T00:16:56;4.05;;;1.77;;
22289;SDS011;11313;50.116;8.424;2024-03-17T00:19:23;1.85;;;1.33;;
22289;SDS011;11313;50.116;8.424;2024-03-17T00:21:49;3.63;;;1.70;;
22289;SDS011;11313;50.116;8.424;2024-03-17T00:24:18;4.07;;;1.80;;
22289;SDS011;11313;50.116;8.424;2024-03-17T00:26:44;4.05;;;1.80;;
22289;SDS011;11313;50.116;8.424;2024-03-17T00:29:10;2.80;;;1.52;;
22289;SDS011;11313;50.116;8.424;2024-03-17T00:31:36;1.80;;;1.38;;
22289;SDS011;11313;50.116;8.424;2024-03-17T00:34:02;2.10;;;1.50;;
22289;SDS011;11313;50.116;8.424;2024-03-17T00:36:28;2.90;;;1.70;;
22289;SDS011;11313;50.116;8.424;2024-03-17T00:38:54;2.13;;;1.50;;
22289;SDS011;11313;50.116;8.424;2024-03-17T00:41:19;2.95;;;1.52;;
22289;SDS011;11313;50.116;8.424;2024-03-17T00:43:46;4.18;;;1.60;;
22289;SDS011;11313;50.116;8.424;2024-03-17T00:46:12;3.47;;;1.60;;
22289;SDS011;11313;50.116;8.424;2024-03-17T00:48:37;2.55;;;1.30;;
22289;SDS011;11313;50.116;8.424;2024-03-17T00:51:03;2.58;;;1.30;;
22289;SDS011;11313;50.116;8.424;2024-03-17T00:53:29;2.22;;;1.50;;
22289;SDS011;11313;50.116;8.424;2024-03-17T00:55:55;3.03;;;1.60;;
22289;SDS011;11313;50.116;8.424;2024-03-17T00:58:25;2.28;;;1.42;;
22289;SDS011;11313;50.116;8.424;2024-03-17T01:00:50;2.58;;;1.63;;
22289;SDS011;11313;50.116;8.424;2024-03-17T01:03:16;2.50;;;1.73;;
22289;SDS011;11313;50.116;8.424;2024-03-17T01:05:42;2.47;;;1.40;;
22289;SDS011;11313;50.116;8.424;2024-03-17T01:08:13;1.52;;;1.30;;
22289;SDS011;11313;50.116;8.424;2024-03-17T01:10:40;2.03;;;1.50;;
22289;SDS011;11313;50.116;8.424;2024-03-17T01:13:06;2.58;;;1.60;;
22289;SDS011;11313;50.116;8.424;2024-03-17T01:15:32;2.55;;;1.40;;
22289;SDS011;11313;50.116;8.424;2024-03-17T01:17:58;2.10;;;1.45;;
22289;SDS011;11313;50.116;8.424;2024-03-17T01:20:25;3.17;;;1.80;;
22289;SDS011;11313;50.116;8.424;2024-03-17T01:22:51;1.80;;;1.50;;
22289;SDS011;11313;50.116;8.424;2024-03-17T01:25:16;1.70;;;1.42;;
22289;SDS011;11313;50.116;8.424;2024-03-17T01:27:42;3.38;;;1.30;;
22289;SDS011;11313;50.116;8.424;2024-03-17T01:30:08;1.98;;;1.58;;
22289;SDS011;11313;50.116;8.424;2024-03-17T01:32:37;3.35;;;1.58;;
22289;SDS011;11313;50.116;8.424;2024-03-17T01:35:03;3.33;;;1.75;;
22289;SDS011;11313;50.116;8.424;2024-03-17T01:37:30;3.00;;;1.48;;
22289;SDS011;11313;50.116;8.424;2024-03-17T01:39:57;1.75;;;1.20;;
22289;SDS011;11313;50.116;8.424;2024-03-17T01:42:23;2.42;;;1.65;;
22289;SDS011;11313;50.116;8.424;2024-03-17T01:44:49;2.58;;;1.60;;
22289;SDS011;11313;50.116;8.424;2024-03-17T01:47:15;2.35;;;1.70;;
22289;SDS011;11313;50.116;8.424;2024-03-17T01:49:47;2.83;;;1.27;;
22289;SDS011;11313;50.116;8.424;2024-03-17T01:52:14;3.03;;;1.70;;
22289;SDS011;11313;50.116;8.424;2024-03-17T01:54:41;1.98;;;1.48;;
22289;SDS011;11313;50.116;8.424;2024-03-17T01:57:08;2.55;;;1.60;;
22289;SDS011;11313;50.116;8.424;2024-03-17T01:59:35;1.83;;;1.40;;
22289;SDS011;11313;50.116;8.424;2024-03-17T02:02:00;2.15;;;1.33;;
22289;SDS011;11313;50.116;8.424;2024-03-17T02:04:27;2.15;;;1.60;;
22289;SDS011;11313;50.116;8.424;2024-03-17T02:06:53;2.53;;;1.50;;
22289;SDS011;11313;50.116;8.424;2024-03-17T02:09:18;1.70;;;1.50;;
22289;SDS011;11313;50.116;8.424;2024-03-17T02:11:45;1.98;;;1.48;;
22289;SDS011;11313;50.116;8.424;2024-03-17T02:14:10;3.00;;;1.60;;
22289;SDS011;11313;50.116;8.424;2024-03-17T02:16:38;2.03;;;1.50;;
22289;SDS011;11313;50.116;8.424;2024-03-17T02:19:04;2.85;;;1.45;;
22289;SDS011;11313;50.116;8.424;2024-03-17T02:21:29;1.77;;;1.58;;
22289;SDS011;11313;50.116;8.424;2024-03-17T02:23:55;1.88;;;1.40;;
22289;SDS011;11313;50.116;8.424;2024-03-17T02:26:21;2.03;;;1.40;;
22289;SDS011;11313;50.116;8.424;2024-03-17T02:28:48;2.10;;;1.40;;
22289;SDS011;11313;50.116;8.424;2024-03-17T02:31:14;1.92;;;1.42;;
22289;SDS011;11313;50.116;8.424;2024-03-17T02:33:41;2.08;;;1.52;;
22289;SDS011;11313;50.116;8.424;2024-03-17T02:36:08;2.83;;;1.70;;
22289;SDS011;11313;50.116;8.424;2024-03-17T02:38:35;2.42;;;1.60;;
22289;SDS011;11313;50.116;8.424;2024-03-17T02:41:19;1.70;;;1.50;;
22289;SDS011;11313;50.116;8.424;2024-03-17T02:43:45;2.25;;;1.60;;
22289;SDS011;11313;50.116;8.424;2024-03-17T02:46:12;2.95;;;1.63;;
22289;SDS011;11313;50.116;8.424;2024-03-17T02:48:39;2.58;;;1.38;;
22289;SDS011;11313;50.116;8.424;2024-03-17T02:51:10;2.65;;;1.67;;
22289;SDS011;11313;50.116;8.424;2024-03-17T02:53:40;2.05;;;1.50;;
22289;SDS011;11313;50.116;8.424;2024-03-17T02:56:07;2.63;;;1.40;;
22289;SDS011;11313;50.116;8.424;2024-03-17T02:58:35;1.50;;;1.40;;
22289;SDS011;11313;50.116;8.424;2024-03-17T03:01:02;2.38;;;1.42;;
22289;SDS011;11313;50.116;8.424;2024-03-17T03:03:29;1.65;;;1.48;;
22289;SDS011;11313;50.116;8.424;2024-03-17T03:05:58;1.77;;;1.30;;
22289;SDS011;11313;50.116;8.424;2024-03-17T03:08:26;2.10;;;1.38;;
22289;SDS011;11313;50.116;8.424;2024-03-17T03:10:52;2.08;;;1.48;;
22289;SDS011;11313;50.116;8.424;2024-03-17T03:13:17;1.70;;;1.42;;
22289;SDS011;11313;50.116;8.424;2024-03-17T03:15:45;1.67;;;1.40;;
22289;SDS011;11313;50.116;8.424;2024-03-17T03:18:12;1.52;;;1.42;;
22289;SDS011;11313;50.116;8.424;2024-03-17T03:20:38;2.05;;;1.40;;
22289;SDS011;11313;50.116;8.424;2024-03-17T03:23:04;1.40;;;1.20;;
22289;SDS011;11313;50.116;8.424;2024-03-17T03:25:29;2.13;;;1.30;;
22289;SDS011;11313;50.116;8.424;2024-03-17T03:27:55;1.92;;;1.52;;
22289;SDS011;11313;50.116;8.424;2024-03-17T03:30:22;1.70;;;1.33;;
22289;SDS011;11313;50.116;8.424;2024-03-17T03:32:48;2.00;;;1.10;;
22289;SDS011;11313;50.116;8.424;2024-03-17T03:35:14;5.78;;;1.52;;
22289;SDS011;11313;50.116;8.424;2024-03-17T03:37:40;1.35;;;1.20;;
22289;SDS011;11313;50.116;8.424;2024-03-17T03:40:06;1.50;;;1.20;;
22289;SDS011;11313;50.116;8.424;2024-03-17T03:42:41;1.80;;;1.40;;
22289;SDS011;11313;50.116;8.424;2024-03-17T03:45:07;1.48;;;1.10;;
22289;SDS011;11313;50.116;8.424;2024-03-17T03:47:37;3.13;;;1.42;;
22289;SDS011;11313;50.116;8.424;2024-03-17T03:50:03;1.55;;;1.30;;
22289;SDS011;11313;50.116;8.424;2024-03-17T03:52:30;1.75;;;1.30;;
22289;SDS011;11313;50.116;8.424;2024-03-17T03:54:55;3.28;;;1.35;;
22289;SDS011;11313;50.116;8.424;2024-03-17T03:57:21;2.45;;;1.40;;
22289;SDS011;11313;50.116;8.424;2024-03-17T03:59:46;2.00;;;1.50;;
22289;SDS011;11313;50.116;8.424;2024-03-17T04:02:12;1.85;;;1.27;;
22289;SDS011;11313;50.116;8.424;2024-03-17T04:04:37;1.60;;;1.35;;
22289;SDS011;11313;50.116;8.424;2024-03-17T04:07:03;1.75;;;1.33;;
22289;SDS011;11313;50.116;8.424;2024-03-17T04:09:29;1.45;;;1.30;;
22289;SDS011;11313;50.116;8.424;2024-03-17T04:11:54;2.00;;;1.40;;
22289;SDS011;11313;50.116;8.424;2024-03-17T04:14:20;1.42;;;1.20;;
22289;SDS011;11313;50.116;8.424;2024-03-17T04:16:45;1.95;;;1.23;;
22289;SDS011;11313;50.116;8.424;2024-03-17T04:19:11;1.40;;;1.23;;
22289;SDS011;11313;50.116;8.424;2024-03-17T04:21:36;1.58;;;1.30;;
22289;SDS011;11313;50.116;8.424;2024-03-17T04:24:02;1.85;;;1.00;;
22289;SDS011;11313;50.116;8.424;2024-03-17T04:26:28;1.48;;;1.10;;
22289;SDS011;11313;50.116;8.424;2024-03-17T04:28:53;3.50;;;1.10;;
22289;SDS011;11313;50.116;8.424;2024-03-17T04:31:19;1.33;;;1.00;;
22289;SDS011;11313;50.116;8.424;2024-03-17T04:33:44;1.75;;;1.17;;
22289;SDS011;11313;50.116;8.424;2024-03-17T04:36:10;3.08;;;1.25;;
22289;SDS011;11313;50.116;8.424;2024-03-17T04:38:36;3.15;;;1.20;;
22289;SDS011;11313;50.116;8.424;2024-03-17T04:41:02;2.63;;;1.33;;
22289;SDS011;11313;50.116;8.424;2024-03-17T04:43:33;2.17;;;1.05;;
22289;SDS011;11313;50.116;8.424;2024-03-17T04:45:59;1.95;;;1.30;;
22289;SDS011;11313;50.116;8.424;2024-03-17T04:48:26;1.63;;;1.25;;
22289;SDS011;11313;50.116;8.424;2024-03-17T04:50:52;8.80;;;1.60;;
22289;SDS011;11313;50.116;8.424;2024-03-17T04:53:17;2.03;;;1.20;;
22289;SDS011;11313;50.116;8.424;2024-03-17T04:55:43;1.80;;;1.10;;
22289;SDS011;11313;50.116;8.424;2024-03-17T04:58:08;1.60;;;1.30;;
22289;SDS011;11313;50.116;8.424;2024-03-17T05:00:36;3.28;;;1.30;;
22289;SDS011;11313;50.116;8.424;2024-03-17T05:03:01;2.67;;;1.30;;
22289;SDS011;11313;50.116;8.424;2024-03-17T05:05:28;1.65;;;1.23;;
22289;SDS011;11313;50.116;8.424;2024-03-17T05:07:54;2.72;;;1.10;;
22289;SDS011;11313;50.116;8.424;2024-03-17T05:10:20;1.95;;;1.10;;
22289;SDS011;11313;50.116;8.424;2024-03-17T05:12:45;2.25;;;1.17;;
22289;SDS011;11313;50.116;8.424;2024-03-17T05:15:13;1.60;;;1.13;;
22289;SDS011;11313;50.116;8.424;2024-03-17T05:17:38;1.65;;;1.13;;
22289;SDS011;11313;50.116;8.424;2024-03-17T05:20:04;1.00;;;0.90;;
22289;SDS011;11313;50.116;8.424;2024-03-17T05:22:31;1.90;;;1.20;;
22289;SDS011;11313;50.116;8.424;2024-03-17T05:24:56;2.42;;;1.00;;
22289;SDS011;11313;50.116;8.424;2024-03-17T05:27:22;1.70;;;1.00;;
22289;SDS011;11313;50.116;8.424;2024-03-17T05:29:48;1.73;;;1.13;;
22289;SDS011;11313;50.116;8.424;2024-03-17T05:32:15;0.95;;;0.90;;
22289;SDS011;11313;50.116;8.424;2024-03-17T05:34:41;2.22;;;0.90;;
22289;SDS011;11313;50.116;8.424;2024-03-17T05:37:06;1.63;;;1.05;;
22289;SDS011;11313;50.116;8.424;2024-03-17T05:39:32;1.23;;;1.02;;
22289;SDS011;11313;50.116;8.424;2024-03-17T05:41:57;1.95;;;1.10;;
22289;SDS011;11313;50.116;8.424;2024-03-17T05:44:23;1.05;;;0.90;;
22289;SDS011;11313;50.116;8.424;2024-03-17T05:46:48;2.78;;;1.10;;
22289;SDS011;11313;50.116;8.424;2024-03-17T05:49:16;1.38;;;1.00;;
22289;SDS011;11313;50.116;8.424;2024-03-17T05:51:42;4.80;;;1.08;;
22289;SDS011;11313;50.116;8.424;2024-03-17T05:54:08;1.00;;;0.88;;
22289;SDS011;11313;50.116;8.424;2024-03-17T05:56:34;2.05;;;1.00;;
22289;SDS011;11313;50.116;8.424;2024-03-17T05:59:00;4.00;;;1.00;;
22289;SDS011;11313;50.116;8.424;2024-03-17T06:01:26;1.17;;;1.00;;
22289;SDS011;11313;50.116;8.424;2024-03-17T06:03:51;2.85;;;1.13;;
22289;SDS011;11313;50.116;8.424;2024-03-17T06:06:17;1.23;;;0.90;;
22289;SDS011;11313;50.116;8.424;2024-03-17T06:08:43;4.05;;;1.20;;
22289;SDS011;11313;50.116;8.424;2024-03-17T06:11:08;7.25;;;1.40;;
22289;SDS011;11313;50.116;8.424;2024-03-17T06:13:34;7.43;;;1.50;;
22289;SDS011;11313;50.116;8.424;2024-03-17T06:16:02;6.25;;;1.90;;
22289;SDS011;11313;50.116;8.424;2024-03-17T06:18:29;8.05;;;1.60;;
22289;SDS011;11313;50.116;8.424;2024-03-17T06:20:54;9.32;;;1.65;;
22289;SDS011;11313;50.116;8.424;2024-03-17T06:23:23;8.40;;;1.73;;
22289;SDS011;11313;50.116;8.424;2024-03-17T06:25:49;5.72;;;1.73;;
22289;SDS011;11313;50.116;8.424;2024-03-17T06:28:16;5.57;;;1.60;;
22289;SDS011;11313;50.116;8.424;2024-03-17T06:30:42;8.18;;;1.48;;
22289;SDS011;11313;50.116;8.424;2024-03-17T06:33:11;7.88;;;1.92;;
22289;SDS011;11313;50.116;8.424;2024-03-17T06:35:37;6.47;;;1.70;;
22289;SDS011;11313;50.116;8.424;2024-03-17T06:38:02;8.10;;;1.58;;
22289;SDS011;11313;50.116;8.424;2024-03-17T06:40:28;5.80;;;1.55;;
22289;SDS011;11313;50.116;8.424;2024-03-17T06:42:54;4.18;;;1.55;;
22289;SDS011;11313;50.116;8.424;2024-03-17T06:45:19;6.63;;;1.80;;
22289;SDS011;11313;50.116;8.424;2024-03-17T06:47:45;6.63;;;1.70;;
22289;SDS011;11313;50.116;8.424;2024-03-17T06:50:11;4.90;;;1.60;;
22289;SDS011;11313;50.116;8.424;2024-03-17T06:52:37;7.82;;;2.20;;
22289;SDS011;11313;50.116;8.424;2024-03-17T06:55:03;4.43;;;2.20;;
22289;SDS011;11313;50.116;8.424;2024-03-17T06:57:29;8.68;;;2.20;;
22289;SDS011;11313;50.116;8.424;2024-03-17T06:59:55;6.95;;;2.10;;
22289;SDS011;11313;50.116;8.424;2024-03-17T07:02:21;8.30;;;2.22;;
22289;SDS011;11313;50.116;8.424;2024-03-17T07:04:46;9.52;;;2.40;;
22289;SDS011;11313;50.116;8.424;2024-03-17T07:07:12;6.88;;;2.00;;
22289;SDS011;11313;50.116;8.424;2024-03-17T07:09:39;11.40;;;2.30;;
22289;SDS011;11313;50.116;8.424;2024-03-17T07:12:06;8.45;;;2.15;;
22289;SDS011;11313;50.116;8.424;2024-03-17T07:14:32;7.28;;;2.00;;
22289;SDS011;11313;50.116;8.424;2024-03-17T07:16:58;8.07;;;2.20;;
22289;SDS011;11313;50.116;8.424;2024-03-17T07:19:23;7.40;;;2.10;;
22289;SDS011;11313;50.116;8.424;2024-03-17T07:21:49;5.07;;;1.80;;
22289;SDS011;11313;50.116;8.424;2024-03-17T07:24:14;3.95;;;1.90;;
22289;SDS011;11313;50.116;8.424;2024-03-17T07:26:40;10.20;;;2.45;;
22289;SDS011;11313;50.116;8.424;2024-03-17T07:29:05;10.93;;;2.28;;
22289;SDS011;11313;50.116;8.424;2024-03-17T07:31:33;5.53;;;2.05;;
22289;SDS011;11313;50.116;8.424;2024-03-17T07:33:59;6.75;;;2.35;;
22289;SDS011;11313;50.116;8.424;2024-03-17T07:36:24;6.53;;;2.17;;
22289;SDS011;11313;50.116;8.424;2024-03-17T07:38:50;6.80;;;2.47;;
22289;SDS011;11313;50.116;8.424;2024-03-17T07:41:16;9.07;;;2.05;;
22289;SDS011;11313;50.116;8.424;2024-03-17T07:43:41;12.35;;;2.28;;
22289;SDS011;11313;50.116;8.424;2024-03-17T07:46:08;5.15;;;2.17;;
22289;SDS011;11313;50.116;8.424;2024-03-17T07:48:37;5.80;;;2.20;;
22289;SDS011;11313;50.116;8.424;2024-03-17T07:51:07;5.87;;;2.10;;
22289;SDS011;11313;50.116;8.424;2024-03-17T07:53:35;4.47;;;2.25;;
22289;SDS011;11313;50.116;8.424;2024-03-17T07:56:12;8.68;;;2.17;;
22289;SDS011;11313;50.116;8.424;2024-03-17T07:58:39;5.07;;;2.08;;
22289;SDS011;11313;50.116;8.424;2024-03-17T08:01:07;7.07;;;2.00;;
22289;SDS011;11313;50.116;8.424;2024-03-17T08:03:35;7.10;;;2.13;;
22289;SDS011;11313;50.116;8.424;2024-03-17T08:06:02;7.78;;;2.10;;
22289;SDS011;11313;50.116;8.424;2024-03-17T08:08:29;6.28;;;1.63;;
22289;SDS011;11313;50.116;8.424;2024-03-17T08:10:56;4.35;;;1.80;;
22289;SDS011;11313;50.116;8.424;2024-03-17T08:13:22;4.57;;;1.85;;
22289;SDS011;11313;50.116;8.424;2024-03-17T08:15:55;4.85;;;2.15;;
22289;SDS011;11313;50.116;8.424;2024-03-17T08:18:22;4.80;;;1.88;;
22289;SDS011;11313;50.116;8.424;2024-03-17T08:20:47;6.75;;;2.15;;
22289;SDS011;11313;50.116;8.424;2024-03-17T08:23:13;3.78;;;2.00;;
22289;SDS011;11313;50.116;8.424;2024-03-17T08:25:39;5.72;;;1.98;;
22289;SDS011;11313;50.116;8.424;2024-03-17T08:28:04;5.75;;;2.00;;
22289;SDS011;11313;50.116;8.424;2024-03-17T08:30:32;4.22;;;1.80;;
22289;SDS011;11313;50.116;8.424;2024-03-17T08:32:58;3.28;;;1.67;;
22289;SDS011;11313;50.116;8.424;2024-03-17T08:35:23;3.75;;;1.95;;
22289;SDS011;11313;50.116;8.424;2024-03-17T08:37:49;3.00;;;1.60;;
22289;SDS011;11313;50.116;8.424;2024-03-17T08:40:16;5.65;;;2.00;;
22289;SDS011;11313;50.116;8.424;2024-03-17T08:42:42;8.63;;;2.00;;
22289;SDS011;11313;50.116;8.424;2024-03-17T08:45:08;4.78;;;1.67;;
22289;SDS011;11313;50.116;8.424;2024-03-17T08:47:36;6.28;;;1.80;;
22289;SDS011;11313;50.116;8.424;2024-03-17T08:50:01;4.47;;;1.50;;
22289;SDS011;11313;50.116;8.424;2024-03-17T08:52:29;4.45;;;1.70;;
22289;SDS011;11313;50.116;8.424;2024-03-17T08:54:56;6.35;;;1.73;;
22289;SDS011;11313;50.116;8.424;2024-03-17T08:57:22;4.47;;;1.67;;
22289;SDS011;11313;50.116;8.424;2024-03-17T08:59:48;5.93;;;1.70;;
22289;SDS011;11313;50.116;8.424;2024-03-17T09:02:13;5.38;;;1.83;;
22289;SDS011;11313;50.116;8.424;2024-03-17T09:04:42;3.47;;;1.85;;
22289;SDS011;11313;50.116;8.424;2024-03-17T09:07:08;3.70;;;1.98;;
22289;SDS011;11313;50.116;8.424;2024-03-17T09:09:34;4.32;;;1.67;;
22289;SDS011;11313;50.116;8.424;2024-03-17T09:11:59;4.00;;;1.63;;
22289;SDS011;11313;50.116;8.424;2024-03-17T09:14:25;3.05;;;1.80;;
22289;SDS011;11313;50.116;8.424;2024-03-17T09:16:50;3.17;;;1.48;;
22289;SDS011;11313;50.116;8.424;2024-03-17T09:19:16;3.42;;;1.50;;
22289;SDS011;11313;50.116;8.424;2024-03-17T09:21:42;3.25;;;1.50;;
22289;SDS011;11313;50.116;8.424;2024-03-17T09:24:08;3.28;;;1.80;;
22289;SDS011;11313;50.116;8.424;2024-03-17T09:26:34;4.30;;;1.50;;
22289;SDS011;11313;50.116;8.424;2024-03-17T09:29:00;3.17;;;1.50;;
22289;SDS011;11313;50.116;8.424;2024-03-17T09:31:26;3.80;;;1.70;;
22289;SDS011;11313;50.116;8.424;2024-03-17T09:33:52;4.40;;;1.80;;
22289;SDS011;11313;50.116;8.424;2024-03-17T09:36:17;3.00;;;1.58;;
22289;SDS011;11313;50.116;8.424;2024-03-17T09:38:43;4.00;;;1.60;;
22289;SDS011;11313;50.116;8.424;2024-03-17T09:41:19;4.72;;;1.60;;
22289;SDS011;11313;50.116;8.424;2024-03-17T09:43:47;7.55;;;1.95;;
22289;SDS011;11313;50.116;8.424;2024-03-17T09:46:13;2.92;;;1.58;;
22289;SDS011;11313;50.116;8.424;2024-03-17T09:48:41;2.78;;;1.50;;
22289;SDS011;11313;50.116;8.424;2024-03-17T09:51:07;4.20;;;1.70;;
22289;SDS011;11313;50.116;8.424;2024-03-17T09:53:48;2.88;;;1.30;;
22289;SDS011;11313;50.116;8.424;2024-03-17T09:56:15;2.67;;;1.25;;
22289;SDS011;11313;50.116;8.424;2024-03-17T09:58:43;4.40;;;1.33;;
22289;SDS011;11313;50.116;8.424;2024-03-17T10:01:09;2.38;;;1.40;;
22289;SDS011;11313;50.116;8.424;2024-03-17T10:03:45;2.00;;;1.20;;
22289;SDS011;11313;50.116;8.424;2024-03-17T10:06:19;4.70;;;1.30;;
22289;SDS011;11313;50.116;8.424;2024-03-17T10:08:47;3.53;;;1.30;;
22289;SDS011;11313;50.116;8.424;2024-03-17T10:11:18;2.53;;;1.40;;
22289;SDS011;11313;50.116;8.424;2024-03-17T10:13:45;4.00;;;1.30;;
22289;SDS011;11313;50.116;8.424;2024-03-17T10:16:24;6.45;;;1.40;;
22289;SDS011;11313;50.116;8.424;2024-03-17T10:21:37;3.05;;;1.48;;
22289;SDS011;11313;50.116;8.424;2024-03-17T10:24:14;3.65;;;1.30;;
22289;SDS011;11313;50.116;8.424;2024-03-17T10:26:51;3.17;;;1.50;;
22289;SDS011;11313;50.116;8.424;2024-03-17T10:31:58;3.78;;;1.67;;
22289;SDS011;11313;50.116;8.424;2024-03-17T10:34:27;5.00;;;1.35;;
22289;SDS011;11313;50.116;8.424;2024-03-17T10:39:31;3.78;;;1.20;;
22289;SDS011;11313;50.116;8.424;2024-03-17T10:41:58;4.88;;;1.40;;
22289;SDS011;11313;50.116;8.424;2024-03-17T10:44:29;3.92;;;1.40;;
22289;SDS011;11313;50.116;8.424;2024-03-17T10:46:56;3.08;;;1.35;;
22289;SDS011;11313;50.116;8.424;2024-03-17T10:49:32;4.10;;;1.25;;
22289;SDS011;11313;50.116;8.424;2024-03-17T10:51:59;3.28;;;1.30;;
22289;SDS011;11313;50.116;8.424;2024-03-17T10:54:25;2.17;;;1.30;;
22289;SDS011;11313;50.116;8.424;2024-03-17T10:56:54;3.50;;;1.10;;
22289;SDS011;11313;50.116;8.424;2024-03-17T10:59:23;3.47;;;1.20;;
22289;SDS011;11313;50.116;8.424;2024-03-17T11:02:03;6.10;;;1.30;;
22289;SDS011;11313;50.116;8.424;2024-03-17T11:04:35;3.28;;;1.27;;
22289;SDS011;11313;50.116;8.424;2024-03-17T11:07:01;3.75;;;1.30;;
22289;SDS011;11313;50.116;8.424;2024-03-17T11:09:27;2.45;;;1.15;;
22289;SDS011;11313;50.116;8.424;2024-03-17T11:11:53;5.47;;;1.40;;
22289;SDS011;11313;50.116;8.424;2024-03-17T11:14:19;5.68;;;1.45;;
22289;SDS011;11313;50.116;8.424;2024-03-17T11:16:45;3.50;;;1.48;;
22289;SDS011;11313;50.116;8.424;2024-03-17T11:19:15;4.28;;;1.48;;
22289;SDS011;11313;50.116;8.424;2024-03-17T11:21:41;3.35;;;1.20;;
22289;SDS011;11313;50.116;8.424;2024-03-17T11:24:07;1.08;;;0.90;;
22289;SDS011;11313;50.116;8.424;2024-03-17T11:26:44;4.68;;;1.30;;
22289;SDS011;11313;50.116;8.424;2024-03-17T11:29:25;4.65;;;1.38;;
22289;SDS011;11313;50.116;8.424;2024-03-17T11:31:54;4.57;;;1.20;;
22289;SDS011;11313;50.116;8.424;2024-03-17T11:34:36;2.63;;;1.08;;
22289;SDS011;11313;50.116;8.424;2024-03-17T11:37:04;3.05;;;1.27;;
22289;SDS011;11313;50.116;8.424;2024-03-17T11:39:52;2.28;;;1.08;;
22289;SDS011;11313;50.116;8.424;2024-03-17T11:42:21;3.80;;;1.10;;
22289;SDS011;11313;50.116;8.424;2024-03-17T11:44:57;3.50;;;1.10;;
22289;SDS011;11313;50.116;8.424;2024-03-17T11:47:32;3.40;;;1.13;;
22289;SDS011;11313;50.116;8.424;2024-03-17T11:50:00;2.75;;;1.08;;
22289;SDS011;11313;50.116;8.424;2024-03-17T11:52:28;2.53;;;1.20;;
22289;SDS011;11313;50.116;8.424;2024-03-17T11:54:53;3.53;;;1.20;;
22289;SDS011;11313;50.116;8.424;2024-03-17T11:57:26;2.25;;;1.10;;
22289;SDS011;11313;50.116;8.424;2024-03-17T11:59:52;2.17;;;1.00;;
22289;SDS011;11313;50.116;8.424;2024-03-17T12:02:20;3.15;;;1.00;;
22289;SDS011;11313;50.116;8.424;2024-03-17T12:04:47;3.03;;;1.10;;
22289;SDS011;11313;50.116;8.424;2024-03-17T12:07:14;2.28;;;1.10;;
22289;SDS011;11313;50.116;8.424;2024-03-17T12:09:41;2.92;;;1.20;;
22289;SDS011;11313;50.116;8.424;2024-03-17T12:12:29;2.25;;;1.02;;
22289;SDS011;11313;50.116;8.424;2024-03-17T12:15:00;4.82;;;1.02;;
22289;SDS011;11313;50.116;8.424;2024-03-17T12:17:26;2.78;;;0.85;;
22289;SDS011;11313;50.116;8.424;2024-03-17T12:19:51;2.80;;;1.17;;
22289;SDS011;11313;50.116;8.424;2024-03-17T12:22:20;2.55;;;1.20;;
22289;SDS011;11313;50.116;8.424;2024-03-17T12:24:50;3.03;;;1.50;;
22289;SDS011;11313;50.116;8.424;2024-03-17T12:27:20;2.83;;;1.30;;
22289;SDS011;11313;50.116;8.424;2024-03-17T12:29:47;2.25;;;1.10;;
22289;SDS011;11313;50.116;8.424;2024-03-17T12:34:43;5.13;;;1.20;;
22289;SDS011;11313;50.116;8.424;2024-03-17T12:37:15;7.95;;;1.25;;
22289;SDS011;11313;50.116;8.424;2024-03-17T12:39:48;12.15;;;1.40;;
22289;SDS011;11313;50.116;8.424;2024-03-17T12:42:24;3.08;;;1.00;;
22289;SDS011;11313;50.116;8.424;2024-03-17T12:44:51;4.57;;;1.00;;
22289;SDS011;11313;50.116;8.424;2024-03-17T12:47:20;3.15;;;1.00;;
22289;SDS011;11313;50.116;8.424;2024-03-17T12:52:24;4.07;;;1.05;;
22289;SDS011;11313;50.116;8.424;2024-03-17T12:55:00;3.03;;;1.33;;
22289;SDS011;11313;50.116;8.424;2024-03-17T12:57:51;4.55;;;1.30;;
22289;SDS011;11313;50.116;8.424;2024-03-17T13:01:00;4.78;;;1.02;;
22289;SDS011;11313;50.116;8.424;2024-03-17T13:03:31;4.00;;;1.20;;
22289;SDS011;11313;50.116;8.424;2024-03-17T13:06:01;2.63;;;1.10;;
22289;SDS011;11313;50.116;8.424;2024-03-17T13:08:29;3.08;;;1.20;;
22289;SDS011;11313;50.116;8.424;2024-03-17T13:10:56;2.58;;;1.15;;
22289;SDS011;11313;50.116;8.424;2024-03-17T13:13:22;3.80;;;1.20;;
22289;SDS011;11313;50.116;8.424;2024-03-17T13:15:48;5.70;;;1.40;;
22289;SDS011;11313;50.116;8.424;2024-03-17T13:18:16;5.38;;;1.15;;
22289;SDS011;11313;50.116;8.424;2024-03-17T13:20:46;4.78;;;1.38;;
22289;SDS011;11313;50.116;8.424;2024-03-17T13:23:14;4.45;;;1.38;;
22289;SDS011;11313;50.116;8.424;2024-03-17T13:25:40;10.48;;;1.50;;
22289;SDS011;11313;50.116;8.424;2024-03-17T13:28:08;4.40;;;1.30;;
22289;SDS011;11313;50.116;8.424;2024-03-17T13:30:34;5.28;;;1.20;;
22289;SDS011;11313;50.116;8.424;2024-03-17T13:33:01;5.72;;;1.48;;
22289;SDS011;11313;50.116;8.424;2024-03-17T13:35:33;4.78;;;1.42;;
22289;SDS011;11313;50.116;8.424;2024-03-17T13:38:00;7.35;;;1.60;;
22289;SDS011;11313;50.116;8.424;2024-03-17T13:40:27;3.13;;;1.35;;
22289;SDS011;11313;50.116;8.424;2024-03-17T13:42:54;6.60;;;1.50;;
22289;SDS011;11313;50.116;8.424;2024-03-17T13:45:21;4.95;;;1.50;;
22289;SDS011;11313;50.116;8.424;2024-03-17T13:47:51;4.35;;;1.30;;
22289;SDS011;11313;50.116;8.424;2024-03-17T13:50:20;3.88;;;1.33;;
22289;SDS011;11313;50.116;8.424;2024-03-17T13:52:45;5.88;;;1.60;;
22289;SDS011;11313;50.116;8.424;2024-03-17T13:57:42;9.25;;;1.83;;
22289;SDS011;11313;50.116;8.424;2024-03-17T14:00:25;5.57;;;1.70;;
22289;SDS011;11313;50.116;8.424;2024-03-17T14:02:52;7.53;;;2.00;;
22289;SDS011;11313;50.116;8.424;2024-03-17T14:05:22;6.38;;;1.55;;
22289;SDS011;11313;50.116;8.424;2024-03-17T14:07:48;5.70;;;1.70;;
22289;SDS011;11313;50.116;8.424;2024-03-17T14:10:16;6.45;;;1.52;;
22289;SDS011;11313;50.116;8.424;2024-03-17T14:12:43;7.97;;;1.40;;
22289;SDS011;11313;50.116;8.424;2024-03-17T14:15:09;4.60;;;1.55;;
22289;SDS011;11313;50.116;8.424;2024-03-17T14:17:39;5.75;;;2.00;;
22289;SDS011;11313;50.116;8.424;2024-03-17T14:20:06;4.07;;;1.60;;
22289;SDS011;11313;50.116;8.424;2024-03-17T14:22:36;2.03;;;1.43;;
22289;SDS011;11313;50.116;8.424;2024-03-17T14:25:03;3.67;;;1.50;;
22289;SDS011;11313;50.116;8.424;2024-03-17T14:27:32;7.28;;;1.90;;
22289;SDS011;11313;50.116;8.424;2024-03-17T14:29:58;4.47;;;1.73;;
22289;SDS011;11313;50.116;8.424;2024-03-17T14:32:24;5.50;;;1.60;;
22289;SDS011;11313;50.116;8.424;2024-03-17T14:34:50;8.60;;;1.80;;
22289;SDS011;11313;50.116;8.424;2024-03-17T14:37:15;5.43;;;1.80;;
22289;SDS011;11313;50.116;8.424;2024-03-17T14:39:41;6.60;;;1.70;;
22289;SDS011;11313;50.116;8.424;2024-03-17T14:42:07;3.10;;;1.55;;
22289;SDS011;11313;50.116;8.424;2024-03-17T14:44:34;5.57;;;1.80;;
22289;SDS011;11313;50.116;8.424;2024-03-17T14:47:02;5.20;;;1.87;;
22289;SDS011;11313;50.116;8.424;2024-03-17T14:49:30;7.05;;;1.80;;
22289;SDS011;11313;50.116;8.424;2024-03-17T14:51:56;4.07;;;1.85;;
22289;SDS011;11313;50.116;8.424;2024-03-17T14:54:22;7.38;;;2.03;;
22289;SDS011;11313;50.116;8.424;2024-03-17T14:56:47;6.63;;;2.05;;
22289;SDS011;11313;50.116;8.424;2024-03-17T14:59:13;5.35;;;1.65;;
22289;SDS011;11313;50.116;8.424;2024-03-17T15:01:42;4.80;;;1.60;;
22289;SDS011;11313;50.116;8.424;2024-03-17T15:04:08;3.67;;;1.67;;
22289;SDS011;11313;50.116;8.424;2024-03-17T15:06:33;4.85;;;1.90;;